Sunday, October 21, 2018, 12:57 PM EDT
Back to Local

KJHW, Jamestown, Chautauqua County/jamestown Airport

Location: Jamestown, NY, United States Lat: 42.15
Local Time: 12:57 PM EDT (16:57 GMT) Lon: -79.267
Time Zone: US/Eastern Elev: 1722 ft

Show me the last for .
Show Decoded

2018-10-21 12:22 METAR KJHW 211622Z AUTO 31010KT 10SM OVC029 01/M04 A3017 RMK AO2 FZRANO =
2018-10-21 12:10 METAR KJHW 211610Z AUTO 30009KT 10SM OVC031 01/M04 A3017 RMK AO2 FZRANO =
2018-10-21 10:56 METAR KJHW 211456Z AUTO 32008KT 10SM BKN028 OVC033 01/M04 A3016 RMK AO2 SLP236
                 60000 T00061044 51026 FZRANO =
2018-10-21 10:44 METAR KJHW 211444Z AUTO 32013G18KT 10SM SCT028 OVC035 01/M04 A3016 RMK AO2
                 FZRANO =
2018-10-21 10:34 METAR KJHW 211434Z AUTO 33013G18KT 10SM BKN028 OVC035 01/M04 A3016 RMK AO2
                 FZRANO =
2018-10-21 09:56 METAR KJHW 211356Z AUTO 33013G19KT 10SM OVC032 00/M05 A3015 RMK AO2 SLP230
                 T00001050 FZRANO =
2018-10-21 09:28 METAR KJHW 211328Z AUTO 32013G18KT 10SM OVC030 00/M04 A3014 RMK AO2 FZRANO =
2018-10-21 09:17 METAR KJHW 211317Z AUTO 32011G19KT 10SM OVC028 00/M03 A3013 RMK AO2 FZRANO =
2018-10-21 08:56 METAR KJHW 211256Z AUTO 31011KT 10SM OVC034 00/M03 A3012 RMK AO2 UPB10E20SNE1157
                 SLP221 P0000 T00001033 FZRANO =
2018-10-21 08:32 METAR KJHW 211232Z AUTO 31011KT 10SM BKN030 OVC035 00/M03 A3011 RMK AO2
                 UPB10E20SNE1157 P0000 FZRANO =
2018-10-21 08:09 METAR KJHW 211209Z AUTO 31010KT 10SM BKN028 OVC034 00/M03 A3009 RMK AO2 SNE1157
                 FZRANO =
2018-10-21 07:56 METAR KJHW 211156Z AUTO 32013KT 9SM -SN SCT026 OVC034 00/M03 A3008 RMK AO2
                 UPE03B43E47SNB47 SLP207 P0000 60001 7//// T00001028 10011 20000 51034 FZRANO =
2018-10-21 07:30 METAR KJHW 211130Z AUTO 32009KT 10SM BKN031 OVC040 00/M03 A3007 RMK AO2 UPE03
                 P0000 FZRANO =
2018-10-21 06:56 METAR KJHW 211056Z AUTO 33012KT 9SM UP OVC024 00/M02 A3005 RMK AO2
                 RAB02E12UPB12E17B53SNE02B17E53 SLP195 P0000 T00001022 FZRANO =
2018-10-21 05:56 METAR KJHW 210956Z AUTO 34011G20KT 10SM -SN OVC026 01/M02 A3001 RMK AO2
                 RAB05E52SNE05B52 SLP182 P0000 T00061022 FZRANO =
2018-10-21 05:28 METAR KJHW 210928Z AUTO 34010KT 10SM -RA BKN026 OVC034 01/M01 A3000 RMK AO2
                 RAB05SNE05 P0000 FZRANO =
2018-10-21 05:04 METAR KJHW 210904Z AUTO 34014G20KT 9SM -SN FEW017 OVC032 01/M01 A2998 RMK AO2
                 P0000 FZRANO =
2018-10-21 04:56 METAR KJHW 210856Z AUTO 34015KT 9SM -SN BKN021 BKN033 OVC041 01/M01 A2997 RMK
                 AO2 UPB0759E04RAB04E20SNE0759B20 SLP168 P0001 60001 T00061006 53020 FZRANO =
2018-10-21 03:56 METAR KJHW 210756Z AUTO 33009KT 10SM -SN BKN019 BKN024 OVC032 01/00 A2994 RMK
                 AO2 RAB30E49SNB49 SLP157 P0000 T00060000 FZRANO =
2018-10-21 02:56 METAR KJHW 210656Z AUTO 32008KT 10SM SCT025 BKN040 OVC050 01/00 A2991 RMK AO2
                 UPB32E37SNE32 SLP146 P0000 T00060000 FZRANO =
2018-10-21 02:52 METAR KJHW 210652Z AUTO 32008KT 10SM SCT025 BKN042 OVC050 01/00 A2991 RMK AO2
                 UPB32E37SNE32 P0000 FZRANO =
2018-10-21 02:06 METAR KJHW 210606Z AUTO 35005KT 4SM -SN BR SCT002 OVC025 00/00 A2988 RMK AO2
                 P0000 FZRANO =
2018-10-21 01:56 METAR KJHW 210556Z AUTO 34007KT 2SM -SN BR BKN002 OVC023 00/00 A2987 RMK AO2
                 SLP134 P0000 6//// T00000000 10033 20000 51042 FZRANO =
2018-10-21 01:47 METAR KJHW 210547Z AUTO 33007KT 2SM -SN BR OVC002 00/00 A2987 RMK AO2 P0000
                 FZRANO =
2018-10-21 01:43 METAR KJHW 210543Z AUTO 34008KT 1SM -SN BR OVC002 00/00 A2986 RMK AO2 P0000
                 FZRANO RVRNO =
2018-10-21 01:39 METAR KJHW 210539Z AUTO 35006KT 1/2SM SN FG OVC002 00/00 A2986 RMK AO2 P0000
                 FZRANO RVRNO =
2018-10-21 01:31 METAR KJHW 210531Z AUTO 35008KT 3/4SM -SN BR OVC002 00/00 A2986 RMK AO2 P0000
                 FZRANO RVRNO =
2018-10-21 01:19 METAR KJHW 210519Z AUTO 35012KT 1 1/4SM -SN BR OVC002 00/00 A2985 RMK AO2 P0000
                 FZRANO =
2018-10-21 01:11 METAR KJHW 210511Z AUTO 34011KT 3/4SM -SN BR OVC002 00/00 A2984 RMK AO2 P0000
                 FZRANO RVRNO =
2018-10-21 01:03 METAR KJHW 210503Z AUTO 34009KT 1SM -SN BR OVC002 00/00 A2984 RMK AO2 P0000
                 FZRANO RVRNO =
2018-10-21 00:56 METAR KJHW 210456Z AUTO 34008KT 1 1/4SM -SN BR OVC002 00/00 A2983 RMK AO2 SLP119
                 P0000 T00000000 401000000 FZRANO =
2018-10-21 00:47 METAR KJHW 210447Z AUTO 35010KT 1 1/4SM -SN BR OVC002 00/00 A2982 RMK AO2 P0000
                 FZRANO =
2018-10-21 00:30 METAR KJHW 210430Z AUTO 35009G17KT 1 3/4SM -SN BR OVC004 01/00 A2981 RMK AO2 VIS
                 1 1/4V2 1/2 P0000 FZRANO =
2018-10-20 23:56 METAR KJHW 210356Z AUTO 36009G18KT 3SM -SN BR OVC004 01/01 A2979 RMK AO2
                 RAE12UPB12E40SNB40 SLP101 P0000 T00060006 FZRANO =
2018-10-20 23:38 METAR KJHW 210338Z AUTO 36015G22KT 8SM UP OVC004 02/01 A2976 RMK AO2 RAE12UPB12
                 CIG 003V008 P0000 FZRANO =
2018-10-20 22:56 METAR KJHW 210256Z AUTO 30008KT 9SM RA BKN008 OVC015 02/01 A2974 RMK AO2 CIG
                 006V012 SLP086 6//// T00170011 53017 FZRANO =
2018-10-20 22:34 METAR KJHW 210234Z AUTO 29006KT 10SM -RA BKN008 BKN014 OVC020 02/02 A2973 RMK
                 AO2 CIG 004V011 FZRANO PNO $ =
2018-10-20 22:29 METAR KJHW 210229Z AUTO 28005KT 10SM RA FEW004 SCT009 OVC022 02/02 A2972 RMK AO2
                 FZRANO PNO $ =
2018-10-20 22:18 METAR KJHW 210218Z AUTO 26006KT 10SM -RA SCT004 BKN009 OVC022 02/02 A2972 RMK
                 AO2 FZRANO PNO $ =
2018-10-20 21:56 METAR KJHW 210156Z AUTO 23009KT 7SM RA BKN004 BKN019 OVC025 03/02 A2971 RMK AO2
                 CIG 002V007 SLP073 P0000 T00280022 =
2018-10-20 21:45 METAR KJHW 210145Z AUTO 24008KT 10SM -RA BKN004 BKN007 OVC026 03/03 A2970 RMK
                 AO2 P0000 =
2018-10-20 21:28 METAR KJHW 210128Z AUTO 21007KT 7SM -RA SCT004 OVC009 03/03 A2969 RMK AO2 CIG
                 007V011 P0000 =
2018-10-20 20:56 METAR KJHW 210056Z AUTO 23003KT 9SM -RA OVC004 03/03 A2969 RMK AO2 CIG 003V009
                 SLP069 P0000 T00330028 =
2018-10-20 20:13 METAR KJHW 210013Z AUTO 23008KT 10SM -RA BKN004 BKN008 OVC016 03/03 A2969 RMK
                 AO2 CIG 003V008 P0000 =
2018-10-20 20:03 METAR KJHW 210003Z AUTO 23006KT 10SM -RA SCT004 BKN008 OVC018 03/03 A2969 RMK
                 AO2 CIG 006V011 P0000 =
2018-10-20 19:56 METAR KJHW 202356Z AUTO 24006KT 10SM -RA FEW008 OVC018 03/03 A2969 RMK AO2
                 UPB25E31 SLP067 P0000 6//// T00330028 10072 20028 53018 =
2018-10-20 18:56 METAR KJHW 202256Z AUTO 23006KT 10SM -RA SCT005 BKN017 OVC045 03/02 A2966 RMK
                 AO2 RAE12B34UPB17E28 SLP059 P0000 T00280022 =
2018-10-20 18:49 METAR KJHW 202249Z AUTO 24005KT 10SM -RA FEW005 BKN031 OVC045 03/03 A2966 RMK
                 AO2 RAE12B34UPB17E28 P0000 =
2018-10-20 18:12 METAR KJHW 202212Z AUTO 24004KT 10SM SCT024 BKN045 OVC055 03/02 A2964 RMK AO2
                 RAE12 P0000 =
2018-10-20 17:56 METAR KJHW 202156Z AUTO 25005KT 10SM -RA FEW011 BKN024 OVC030 03/02 A2964 RMK
                 AO2 SLP050 T00330017 =
2018-10-20 17:07 METAR KJHW 202107Z AUTO 32008KT 5SM RA BR FEW008 BKN021 OVC031 06/04 A2964 RMK
                 AO2 PNO $ =
2018-10-20 16:56 METAR KJHW 202056Z AUTO 00000KT 10SM -RA FEW021 BKN026 OVC045 06/04 A2963 RMK
                 AO2 RAE1956B29 SLP048 6//// T00560044 56002 PNO $ =
2018-10-20 16:53 METAR KJHW 202053Z AUTO 00000KT 10SM -RA FEW022 BKN028 OVC045 06/04 A2963 RMK
                 AO2 RAE1956B29 PNO $ =
2018-10-20 16:19 METAR KJHW 202019Z AUTO VRB03KT 10SM FEW005 BKN041 BKN075 05/04 A2963 RMK AO2
                 RAE1956 PNO $ =
2018-10-20 15:54 METAR KJHW 201954Z AUTO 00000KT 10SM -RA SCT030 SCT050 OVC080 05/04 A2961 RMK
                 AO2 LTG DSNT NW SLP041 T00500039 PNO $ =
2018-10-20 15:53 METAR KJHW 201953Z AUTO 00000KT 10SM -RA FEW008 BKN030 OVC080 05/04 A2961 RMK
                 AO2 LTG DSNT NW PRESFR PNO $ =
2018-10-20 15:37 METAR KJHW 201937Z AUTO 25004KT 5SM -RA BR FEW010 BKN027 OVC033 04/03 A2964 RMK
                 AO2 LTG DSNT NW PNO $ =
2018-10-20 15:12 METAR KJHW 201912Z AUTO 32011KT 10SM -RA BKN012 BKN026 OVC037 06/04 A2964 RMK
                 AO2 LTG DSNT NW PNO $ =
2018-10-20 15:03 METAR KJHW 201903Z AUTO 32011KT 10SM RA SCT012 BKN019 OVC037 06/04 A2964 RMK AO2
                 PNO $ =
2018-10-20 14:56 METAR KJHW 201856Z AUTO 32012G16KT 10SM -RA SCT018 BKN030 OVC038 06/04 A2964 RMK
                 AO2 RAE06B39 SLP050 T00560039 PNO $ =
2018-10-20 14:36 METAR KJHW 201836Z AUTO 31012G16KT 10SM SCT021 BKN029 OVC100 07/04 A2964 RMK AO2
                 RAE06 PNO $ =
2018-10-20 13:56 METAR KJHW 201756Z AUTO 27005KT 7SM -RA BKN029 BKN038 OVC049 06/04 A2966 RMK AO2
                 LTG DSNT NW-NE SLP057 6//// T00560039 10100 20056 58014 PNO $ =

Support USWX by starting your Amazon purchase here.